Parkersburg, West Virginia
Current Conditions -  °F | °C
As of 7:53 AM on Friday 28 Nov 2014 (Local Time) from KPKB Reporting Station
Clear Clear  
Wind Chill: 18°   Ceiling: Unl
Heat Index: 25°   Visibility: 10mi
Dew Point: 18°   Wind: 6mph
Humidity: 75%   Direction: 270°W
Pressure: 30.4"   Gusts: NA
Location:  39.26°N, 81.56°W
Report Text: KPKB 281253Z 27005KT 10SM CLR M04/M08 A3040 RMK AO2 SLP304 T10391078
Loading
Personal Weather Stations






























Interactive Weather Map New forecast layout! Learn more

10-Day Weather Forecast

Advertisements
Track Severe Weather on mobile